Terminal Aerodrome Forecast
Issued by NWS Twin Cities, MN

Home | Current Version | Previous Version | Graphics & Text | Print | Product List | Glossary On
Versions: 1 2 3 4 5 6 7 8 9 10 11 12 13 14 15 16 17 18 19 20 21 22 23 24 25 26
000
FTUS43 KMPX 191100 RRA
TAFSTC
TAF
KSTC 191142Z 1912/2012 17013G20KT P6SM SCT060 OVC250
     FM191500 18017G24KT P6SM -SHRA BKN015
     FM192000 20013KT P6SM VCSH SCT020 OVC035
     FM200100 21009KT P6SM BKN050
     FM200800 28008KT P6SM BKN250=

USA.gov is the U.S. government's official web portal to all federal, state and local government web resources and services.